createdAt,value
2023-03-27T00:01:33.657Z,100.00
2023-03-27T00:04:01.433Z,100.00
2023-03-27T00:06:28.706Z,100.00
2023-03-27T00:08:56.070Z,100.00
2023-03-27T00:11:25.332Z,100.00
2023-03-27T00:13:55.081Z,100.00
2023-03-27T00:16:27.108Z,100.00
2023-03-27T00:18:55.419Z,100.00
2023-03-27T00:21:23.484Z,100.00
2023-03-27T00:23:51.073Z,100.00
2023-03-27T00:26:18.615Z,100.00
2023-03-27T00:28:47.805Z,100.00
2023-03-27T00:31:17.594Z,100.00
2023-03-27T00:33:46.326Z,100.00
2023-03-27T00:36:15.488Z,100.00
2023-03-27T00:38:44.001Z,100.00
2023-03-27T00:41:13.499Z,100.00
2023-03-27T00:43:49.782Z,100.00
2023-03-27T00:46:22.786Z,100.00
2023-03-27T00:48:52.759Z,100.00
2023-03-27T00:51:24.135Z,100.00
2023-03-27T00:53:53.167Z,100.00
2023-03-27T00:56:23.433Z,100.00
2023-03-27T00:59:11.123Z,100.00
2023-03-27T01:01:40.745Z,100.00
2023-03-27T01:04:09.966Z,100.00
2023-03-27T01:06:39.937Z,100.00
2023-03-27T01:09:09.603Z,100.00
2023-03-27T01:11:59.158Z,100.00
2023-03-27T01:14:54.456Z,100.00
2023-03-27T01:17:51.407Z,100.00
2023-03-27T01:20:32.794Z,100.00
2023-03-27T01:23:58.615Z,100.00
2023-03-27T01:26:37.068Z,100.00
2023-03-27T01:29:26.408Z,100.00
2023-03-27T01:32:32.789Z,100.00
2023-03-27T01:35:24.070Z,100.00
2023-03-27T01:38:36.304Z,100.00
2023-03-27T01:41:26.624Z,100.00
2023-03-27T01:44:17.680Z,100.00
2023-03-27T01:47:09.974Z,100.00
2023-03-27T01:49:55.889Z,100.00
2023-03-27T01:52:27.648Z,100.00
2023-03-27T01:55:03.760Z,100.00
2023-03-27T01:57:51.505Z,100.00
2023-03-27T02:00:22.796Z,100.00
2023-03-27T02:03:11.884Z,100.00
2023-03-27T02:05:49.105Z,100.00
2023-03-27T02:08:45.347Z,100.00
2023-03-27T02:11:15.771Z,100.00
2023-03-27T02:13:57.826Z,100.00
2023-03-27T02:16:34.155Z,100.00
2023-03-27T02:19:13.550Z,100.00
2023-03-27T02:21:42.071Z,100.00
2023-03-27T02:24:09.658Z,100.00
2023-03-27T02:26:37.362Z,100.00
2023-03-27T02:29:32.220Z,100.00
2023-03-27T02:32:18.560Z,100.00
2023-03-27T02:34:50.711Z,100.00
2023-03-27T02:37:33.986Z,100.00
2023-03-27T02:40:33.550Z,100.00
2023-03-27T02:43:16.644Z,100.00
2023-03-27T02:46:03.121Z,100.00
2023-03-27T02:48:46.339Z,100.00
2023-03-27T02:51:22.751Z,100.00
2023-03-27T02:54:32.724Z,100.00
2023-03-27T02:57:08.566Z,100.00
2023-03-27T02:59:45.710Z,100.00
2023-03-27T03:02:20.567Z,100.00
2023-03-27T03:04:57.458Z,100.00
2023-03-27T03:07:34.933Z,100.00
2023-03-27T03:10:02.323Z,100.00
2023-03-27T03:12:29.765Z,100.00
2023-03-27T03:14:58.431Z,100.00
2023-03-27T03:17:25.936Z,100.00
2023-03-27T03:19:54.068Z,100.00
2023-03-27T03:22:21.302Z,100.00
2023-03-27T03:24:48.823Z,100.00
2023-03-27T03:27:16.228Z,100.00
2023-03-27T03:29:44.559Z,100.00
2023-03-27T03:32:13.695Z,100.00
2023-03-27T03:34:46.985Z,100.00
2023-03-27T03:37:14.096Z,100.00
2023-03-27T03:39:41.281Z,100.00
2023-03-27T03:42:08.657Z,100.00
2023-03-27T03:44:37.475Z,100.00
2023-03-27T03:47:05.441Z,100.00
2023-03-27T03:49:34.016Z,100.00
2023-03-27T03:52:03.712Z,100.00
2023-03-27T03:54:33.179Z,100.00
2023-03-27T03:57:00.579Z,100.00
2023-03-27T03:59:28.621Z,100.00
2023-03-27T04:01:55.955Z,100.00
2023-03-27T04:04:23.407Z,100.00
2023-03-27T04:06:51.335Z,100.00
2023-03-27T04:09:20.067Z,100.00
2023-03-27T04:11:53.589Z,100.00
2023-03-27T04:14:21.802Z,100.00
2023-03-27T04:16:48.889Z,100.00
2023-03-27T04:19:18.471Z,100.00
2023-03-27T04:21:47.533Z,100.00
2023-03-27T04:24:14.933Z,100.00
2023-03-27T04:26:43.686Z,100.00
2023-03-27T04:29:12.177Z,100.00
2023-03-27T04:31:39.477Z,100.00
2023-03-27T04:34:08.842Z,100.00
2023-03-27T04:36:36.360Z,100.00
2023-03-27T04:39:04.312Z,100.00
2023-03-27T04:41:39.094Z,100.00
2023-03-27T04:44:06.314Z,100.00
2023-03-27T04:46:33.774Z,100.00
2023-03-27T04:49:01.257Z,100.00
2023-03-27T04:51:32.671Z,100.00
2023-03-27T04:54:00.301Z,100.00
2023-03-27T04:56:27.692Z,100.00
2023-03-27T04:58:56.224Z,100.00
2023-03-27T05:01:26.080Z,100.00
2023-03-27T05:03:54.025Z,100.00
2023-03-27T05:06:21.652Z,100.00
2023-03-27T05:08:50.881Z,100.00
2023-03-27T05:11:18.153Z,100.00
2023-03-27T05:13:46.614Z,100.00
2023-03-27T05:16:14.101Z,100.00
2023-03-27T05:18:42.338Z,100.00
2023-03-27T05:21:11.052Z,100.00
2023-03-27T05:23:39.298Z,100.00
2023-03-27T05:26:08.891Z,100.00
2023-03-27T05:28:37.397Z,100.00
2023-03-27T05:31:05.288Z,100.00
2023-03-27T05:33:32.949Z,100.00
2023-03-27T05:36:00.401Z,100.00
2023-03-27T05:38:27.561Z,100.00
2023-03-27T05:40:54.852Z,100.00
2023-03-27T05:43:23.201Z,100.00
2023-03-27T05:45:50.698Z,100.00
2023-03-27T05:48:18.147Z,100.00
2023-03-27T05:50:45.611Z,100.00
2023-03-27T05:53:13.039Z,100.00
2023-03-27T05:55:41.226Z,100.00
2023-03-27T05:58:12.036Z,100.00
2023-03-27T06:00:43.107Z,100.00
2023-03-27T06:03:14.610Z,100.00
2023-03-27T06:05:42.950Z,100.00
2023-03-27T06:08:12.019Z,100.00
2023-03-27T06:10:44.196Z,100.00
2023-03-27T06:13:13.898Z,100.00
2023-03-27T06:15:43.769Z,100.00
2023-03-27T06:18:11.906Z,100.00
2023-03-27T06:20:40.602Z,100.00
2023-03-27T06:23:09.580Z,100.00
2023-03-27T06:25:39.586Z,100.00
2023-03-27T06:28:09.820Z,100.00
2023-03-27T06:30:39.215Z,100.00
2023-03-27T06:33:08.298Z,100.00
2023-03-27T06:35:36.128Z,100.00
2023-03-27T06:38:03.822Z,100.00
2023-03-27T06:40:32.677Z,100.00
2023-03-27T06:43:03.777Z,100.00
2023-03-27T06:45:43.665Z,100.00
2023-03-27T06:48:20.380Z,100.00
2023-03-27T06:50:52.102Z,100.00
2023-03-27T06:53:27.414Z,100.00
2023-03-27T06:55:58.154Z,100.00
2023-03-27T06:58:26.050Z,100.00
2023-03-27T07:00:54.228Z,100.00
2023-03-27T07:03:23.785Z,100.00
2023-03-27T07:05:53.280Z,100.00
2023-03-27T07:08:24.730Z,100.00
2023-03-27T07:11:10.612Z,100.00
2023-03-27T07:13:39.167Z,100.00
2023-03-27T07:16:08.336Z,100.00
2023-03-27T07:18:36.478Z,100.00
2023-03-27T07:21:03.769Z,100.00
2023-03-27T07:23:31.504Z,100.00
2023-03-27T07:26:00.277Z,100.00
2023-03-27T07:28:27.701Z,100.00
2023-03-27T07:30:55.220Z,100.00
2023-03-27T07:33:25.089Z,100.00
2023-03-27T07:35:52.688Z,100.00
2023-03-27T07:38:20.221Z,100.00
2023-03-27T07:40:47.447Z,100.00
2023-03-27T07:43:14.808Z,100.00
2023-03-27T07:45:42.451Z,100.00
2023-03-27T07:48:16.418Z,100.00
2023-03-27T07:50:44.210Z,100.00
2023-03-27T07:53:33.755Z,100.00
2023-03-27T07:56:00.285Z,100.00
2023-03-27T07:58:27.880Z,100.00
2023-03-27T08:01:02.651Z,100.00
2023-03-27T08:03:32.214Z,100.00
2023-03-27T08:06:01.029Z,100.00
2023-03-27T08:08:28.797Z,100.00
2023-03-27T08:10:57.914Z,100.00
2023-03-27T08:13:25.440Z,100.00
2023-03-27T08:15:53.146Z,100.00
2023-03-27T08:18:20.780Z,100.00
2023-03-27T08:20:48.701Z,100.00
2023-03-27T08:23:16.610Z,100.00
2023-03-27T08:25:44.036Z,100.00
2023-03-27T08:28:12.746Z,100.00
2023-03-27T08:30:42.151Z,100.00
2023-03-27T08:33:10.130Z,100.00
2023-03-27T08:35:37.617Z,100.00
2023-03-27T08:38:09.167Z,100.00
2023-03-27T08:40:50.979Z,100.00
2023-03-27T08:43:45.051Z,100.00
2023-03-27T08:46:23.931Z,100.00
2023-03-27T08:48:57.908Z,100.00
2023-03-27T08:51:33.699Z,100.00
2023-03-27T08:54:14.824Z,100.00
2023-03-27T08:56:49.308Z,100.00
2023-03-27T08:59:24.873Z,100.00
2023-03-27T09:02:09.379Z,100.00
2023-03-27T09:05:00.488Z,100.00
2023-03-27T09:07:41.648Z,100.00
2023-03-27T09:10:23.138Z,100.00
2023-03-27T09:12:58.272Z,100.00
2023-03-27T09:15:42.684Z,100.00
2023-03-27T09:18:28.802Z,100.00
2023-03-27T09:21:04.541Z,100.00
2023-03-27T09:23:50.510Z,100.00
2023-03-27T09:26:34.998Z,100.00
2023-03-27T09:29:04.307Z,100.00
2023-03-27T09:31:41.353Z,100.00
2023-03-27T09:34:13.319Z,100.00
2023-03-27T09:36:42.167Z,100.00
2023-03-27T09:39:16.155Z,100.00
2023-03-27T09:41:51.476Z,100.00
2023-03-27T09:44:26.114Z,100.00
2023-03-27T09:47:02.790Z,100.00
2023-03-27T09:49:30.379Z,100.00
2023-03-27T09:51:59.741Z,100.00
2023-03-27T09:54:32.376Z,100.00
2023-03-27T09:57:12.804Z,100.00
2023-03-27T09:59:55.359Z,100.00
2023-03-27T10:02:28.150Z,100.00
2023-03-27T10:05:03.957Z,100.00
2023-03-27T10:07:31.229Z,100.00
2023-03-27T10:10:11.976Z,100.00
2023-03-27T10:12:41.037Z,100.00
2023-03-27T10:15:32.821Z,100.00
2023-03-27T10:18:05.046Z,100.00
2023-03-27T10:20:32.967Z,100.00
2023-03-27T10:23:08.880Z,99.24
2023-03-27T10:25:50.050Z,98.04
2023-03-27T10:28:27.910Z,96.68
2023-03-27T10:31:02.516Z,96.33
2023-03-27T10:33:35.536Z,95.39
2023-03-27T10:36:04.778Z,94.60
2023-03-27T10:38:33.848Z,94.06
2023-03-27T10:41:07.390Z,92.72
2023-03-27T10:43:40.505Z,90.20
2023-03-27T10:46:15.458Z,91.54
2023-03-27T10:49:10.463Z,89.99
2023-03-27T10:51:53.541Z,89.80
2023-03-27T10:54:47.900Z,89.67
2023-03-27T10:57:24.476Z,88.15
2023-03-27T11:00:12.030Z,87.33
2023-03-27T11:03:12.278Z,87.55
2023-03-27T11:05:48.556Z,85.64
2023-03-27T11:08:34.955Z,82.59
2023-03-27T11:11:21.432Z,81.97
2023-03-27T11:13:49.754Z,79.78
2023-03-27T11:16:44.608Z,79.63
2023-03-27T11:19:12.039Z,81.04
2023-03-27T11:21:54.242Z,79.55
2023-03-27T11:24:50.794Z,77.31
2023-03-27T11:27:30.711Z,77.35
2023-03-27T11:30:10.634Z,77.15
2023-03-27T11:32:47.086Z,76.24
2023-03-27T11:35:25.065Z,77.04
2023-03-27T11:38:03.147Z,75.86
2023-03-27T11:40:39.763Z,74.55
2023-03-27T11:43:13.143Z,72.91
2023-03-27T11:46:02.892Z,73.54
2023-03-27T11:48:51.923Z,74.80
2023-03-27T11:52:01.184Z,75.17
2023-03-27T11:54:55.168Z,76.06
2023-03-27T11:57:26.144Z,77.39
2023-03-27T12:00:16.622Z,78.46
2023-03-27T12:02:57.041Z,76.07
2023-03-27T12:05:55.597Z,75.84
2023-03-27T12:09:17.427Z,76.10
2023-03-27T12:11:56.582Z,75.99
2023-03-27T12:14:41.770Z,75.48
2023-03-27T12:17:46.598Z,74.46
2023-03-27T12:20:27.364Z,74.42
2023-03-27T12:23:04.875Z,73.50
2023-03-27T12:26:10.430Z,71.66
2023-03-27T12:28:54.644Z,71.15
2023-03-27T12:31:49.604Z,71.37
2023-03-27T12:34:50.488Z,69.50
2023-03-27T12:37:23.513Z,69.50
2023-03-27T12:39:59.335Z,67.95
2023-03-27T12:42:43.939Z,68.36
2023-03-27T12:45:20.158Z,66.29
2023-03-27T12:48:10.872Z,65.24
2023-03-27T12:50:51.541Z,65.81
2023-03-27T12:53:28.104Z,67.02
2023-03-27T12:56:17.811Z,66.88
2023-03-27T12:58:47.417Z,64.81
2023-03-27T13:01:48.975Z,66.01
2023-03-27T13:04:43.447Z,64.29
2023-03-27T13:07:43.648Z,63.60
2023-03-27T13:10:24.865Z,63.52
2023-03-27T13:13:20.517Z,64.26
2023-03-27T13:16:12.108Z,62.17
2023-03-27T13:19:12.941Z,63.38
2023-03-27T13:21:59.013Z,63.74
2023-03-27T13:24:41.036Z,63.07
2023-03-27T13:27:36.078Z,63.81
2023-03-27T13:30:04.635Z,61.63
2023-03-27T13:32:40.305Z,60.66
2023-03-27T13:35:23.170Z,59.43
2023-03-27T13:37:50.216Z,59.17
2023-03-27T13:40:24.792Z,59.31
2023-03-27T13:42:59.268Z,59.34
2023-03-27T13:45:39.176Z,59.55
2023-03-27T13:48:40.144Z,59.57
2023-03-27T13:51:26.841Z,60.20
2023-03-27T13:54:15.569Z,60.48
2023-03-27T13:56:59.322Z,61.31
2023-03-27T13:59:50.366Z,60.97
2023-03-27T14:02:49.589Z,58.59
2023-03-27T14:05:59.148Z,55.39
2023-03-27T14:08:38.411Z,56.24
2023-03-27T14:11:30.881Z,54.13
2023-03-27T14:14:21.376Z,53.62
2023-03-27T14:17:09.334Z,53.48
2023-03-27T14:20:01.695Z,53.59
2023-03-27T14:22:40.918Z,55.87
2023-03-27T14:25:40.264Z,54.19
2023-03-27T14:28:10.601Z,53.96
2023-03-27T14:30:56.223Z,53.86
2023-03-27T14:33:23.850Z,54.35
2023-03-27T14:35:57.887Z,54.06
2023-03-27T14:38:30.662Z,53.95
2023-03-27T14:41:00.162Z,55.33
2023-03-27T14:43:30.982Z,54.39
2023-03-27T14:46:07.757Z,54.07
2023-03-27T14:48:39.121Z,53.86
2023-03-27T14:51:10.683Z,54.40
2023-03-27T14:53:44.680Z,55.66
2023-03-27T14:56:29.242Z,53.07
2023-03-27T14:59:00.129Z,53.42
2023-03-27T15:01:32.281Z,53.77
2023-03-27T15:04:02.618Z,54.58
2023-03-27T15:06:36.781Z,53.91
2023-03-27T15:09:11.539Z,54.60
2023-03-27T15:11:40.445Z,54.69
2023-03-27T15:14:24.676Z,54.00
2023-03-27T15:17:07.034Z,53.60
2023-03-27T15:19:49.303Z,53.68
2023-03-27T15:22:27.949Z,52.98
2023-03-27T15:25:20.155Z,54.04
2023-03-27T15:27:57.830Z,54.57
2023-03-27T15:30:40.774Z,53.58
2023-03-27T15:33:17.621Z,54.04
2023-03-27T15:35:52.315Z,54.38
2023-03-27T15:38:29.127Z,53.67
2023-03-27T15:41:33.523Z,54.78
2023-03-27T15:44:13.252Z,53.71
2023-03-27T15:46:58.164Z,52.49
2023-03-27T15:49:31.333Z,52.82
2023-03-27T15:52:01.103Z,51.75
2023-03-27T15:54:35.696Z,52.99
2023-03-27T15:57:09.812Z,52.04
2023-03-27T15:59:51.615Z,51.00
2023-03-27T16:02:25.735Z,50.68
2023-03-27T16:04:58.490Z,51.25
2023-03-27T16:07:33.464Z,51.21
2023-03-27T16:10:06.974Z,51.41
2023-03-27T16:12:41.694Z,51.10
2023-03-27T16:15:47.086Z,50.26
2023-03-27T16:18:19.149Z,49.94
2023-03-27T16:20:49.209Z,48.66
2023-03-27T16:23:17.233Z,49.54
2023-03-27T16:25:45.282Z,49.72
2023-03-27T16:28:14.507Z,48.72
2023-03-27T16:30:42.438Z,47.60
2023-03-27T16:33:23.173Z,47.21
2023-03-27T16:35:51.392Z,46.74
2023-03-27T16:38:19.088Z,47.56
2023-03-27T16:40:46.920Z,47.82
2023-03-27T16:43:15.158Z,46.43
2023-03-27T16:45:43.689Z,47.59
2023-03-27T16:48:13.655Z,46.14
2023-03-27T16:50:42.556Z,46.46
2023-03-27T16:53:11.918Z,46.63
2023-03-27T16:55:39.289Z,47.91
2023-03-27T16:58:10.030Z,47.88
2023-03-27T17:00:38.824Z,47.99
2023-03-27T17:03:12.868Z,48.35
2023-03-27T17:05:44.386Z,48.76
2023-03-27T17:08:13.508Z,48.92
2023-03-27T17:10:42.585Z,49.13
2023-03-27T17:13:10.287Z,49.75
2023-03-27T17:15:41.255Z,49.82
2023-03-27T17:18:09.492Z,50.36
2023-03-27T17:20:37.868Z,50.43
2023-03-27T17:23:12.300Z,50.60
2023-03-27T17:25:40.174Z,50.97
2023-03-27T17:28:09.956Z,51.46
2023-03-27T17:30:41.230Z,51.63
2023-03-27T17:33:15.845Z,52.35
2023-03-27T17:35:45.340Z,52.40
2023-03-27T17:38:12.875Z,52.95
2023-03-27T17:40:41.863Z,52.52
2023-03-27T17:43:11.536Z,53.36
2023-03-27T17:45:44.432Z,53.98
2023-03-27T17:48:15.377Z,54.05
2023-03-27T17:50:43.735Z,54.26
2023-03-27T17:53:15.297Z,54.48
2023-03-27T17:55:52.432Z,55.26
2023-03-27T17:58:22.458Z,56.26
2023-03-27T18:00:50.961Z,56.35
2023-03-27T18:03:18.815Z,56.73
2023-03-27T18:05:49.527Z,56.13
2023-03-27T18:08:18.890Z,56.43
2023-03-27T18:10:49.046Z,56.48
2023-03-27T18:13:23.821Z,55.96
2023-03-27T18:15:57.693Z,56.28
2023-03-27T18:18:26.876Z,56.29
2023-03-27T18:20:55.769Z,56.21
2023-03-27T18:23:23.403Z,57.24
2023-03-27T18:25:50.867Z,56.90
2023-03-27T18:28:18.670Z,56.63
2023-03-27T18:30:48.186Z,56.85
2023-03-27T18:33:17.287Z,57.26
2023-03-27T18:35:45.953Z,57.50
2023-03-27T18:38:20.103Z,58.41
2023-03-27T18:40:49.025Z,59.45
2023-03-27T18:43:18.403Z,58.77
2023-03-27T18:45:47.463Z,58.57
2023-03-27T18:48:18.182Z,58.94
2023-03-27T18:50:57.282Z,58.53
2023-03-27T18:53:28.901Z,59.19
2023-03-27T18:56:03.456Z,59.32
2023-03-27T18:58:32.276Z,58.92
2023-03-27T19:01:00.922Z,59.62
2023-03-27T19:03:35.584Z,59.89
2023-03-27T19:06:06.406Z,60.83
2023-03-27T19:08:36.367Z,61.03
2023-03-27T19:11:07.416Z,61.35
2023-03-27T19:13:37.247Z,61.25
2023-03-27T19:16:14.243Z,61.58
2023-03-27T19:18:44.952Z,62.22
2023-03-27T19:21:13.697Z,63.11
2023-03-27T19:23:43.581Z,63.47
2023-03-27T19:26:16.299Z,63.73
2023-03-27T19:28:48.232Z,65.65
2023-03-27T19:31:17.720Z,69.08
2023-03-27T19:33:48.201Z,70.49
2023-03-27T19:36:19.358Z,72.70
2023-03-27T19:38:47.561Z,75.11
2023-03-27T19:41:22.495Z,75.04
2023-03-27T19:43:58.341Z,74.70
2023-03-27T19:46:30.630Z,74.41
2023-03-27T19:48:59.979Z,74.31
2023-03-27T19:51:31.515Z,74.53
2023-03-27T19:53:59.941Z,74.38
2023-03-27T19:56:28.170Z,74.56
2023-03-27T19:58:57.458Z,74.53
2023-03-27T20:01:29.242Z,75.36
2023-03-27T20:04:00.594Z,76.73
2023-03-27T20:06:30.605Z,78.17
2023-03-27T20:09:01.842Z,80.01
2023-03-27T20:11:30.220Z,80.94
2023-03-27T20:14:07.618Z,82.11
2023-03-27T20:16:35.951Z,83.01
2023-03-27T20:19:04.222Z,83.95
2023-03-27T20:21:39.940Z,83.66
2023-03-27T20:24:11.523Z,81.76
2023-03-27T20:26:41.095Z,80.48
2023-03-27T20:29:12.405Z,78.77
2023-03-27T20:31:41.224Z,78.75
2023-03-27T20:34:10.071Z,78.74
2023-03-27T20:36:39.389Z,78.87
2023-03-27T20:39:09.401Z,79.22
2023-03-27T20:41:39.279Z,79.50
2023-03-27T20:44:16.647Z,81.14
2023-03-27T20:46:52.265Z,82.52
2023-03-27T20:51:59.942Z,84.06
2023-03-27T20:54:27.995Z,84.45
2023-03-27T20:56:56.147Z,84.28
2023-03-27T20:59:30.855Z,83.48
2023-03-27T21:01:59.534Z,84.26
2023-03-27T21:04:28.467Z,84.56
2023-03-27T21:06:56.796Z,84.52
2023-03-27T21:09:26.046Z,84.92
2023-03-27T21:11:57.390Z,85.46
2023-03-27T21:14:24.926Z,85.96
2023-03-27T21:16:54.387Z,86.77
2023-03-27T21:19:29.914Z,87.13
2023-03-27T21:21:57.437Z,87.91
2023-03-27T21:24:24.838Z,88.56
2023-03-27T21:26:52.342Z,88.87
2023-03-27T21:29:21.101Z,89.15
2023-03-27T21:31:48.387Z,89.51
2023-03-27T21:34:15.865Z,90.41
2023-03-27T21:36:43.341Z,91.19
2023-03-27T21:39:10.889Z,91.40
2023-03-27T21:41:44.399Z,91.06
2023-03-27T21:44:11.690Z,91.36
2023-03-27T21:46:40.274Z,91.02
2023-03-27T21:49:10.674Z,90.93
2023-03-27T21:51:38.168Z,90.79
2023-03-27T21:54:05.630Z,90.70
2023-03-27T21:56:33.247Z,90.00
2023-03-27T21:59:00.594Z,90.07
2023-03-27T22:01:29.078Z,90.21
2023-03-27T22:04:02.356Z,90.70
2023-03-27T22:06:30.385Z,91.28
2023-03-27T22:08:57.648Z,91.01
2023-03-27T22:11:24.945Z,90.90
2023-03-27T22:13:52.428Z,90.81
2023-03-27T22:16:19.924Z,91.14
2023-03-27T22:18:54.666Z,91.28
2023-03-27T22:21:24.781Z,91.49
2023-03-27T22:23:56.460Z,91.72
2023-03-27T22:26:36.305Z,92.43
2023-03-27T22:29:06.369Z,93.16
2023-03-27T22:31:34.284Z,93.15
2023-03-27T22:34:04.617Z,92.41
2023-03-27T22:36:34.438Z,91.67
2023-03-27T22:39:02.262Z,90.45
2023-03-27T22:41:31.792Z,88.98
2023-03-27T22:44:02.040Z,87.47
2023-03-27T22:46:29.419Z,85.87
2023-03-27T22:48:58.336Z,85.06
2023-03-27T22:51:28.653Z,84.48
2023-03-27T22:54:01.920Z,84.97
2023-03-27T22:56:29.215Z,85.66
2023-03-27T22:58:58.127Z,86.45
2023-03-27T23:01:29.955Z,87.46
2023-03-27T23:03:57.519Z,88.04
2023-03-27T23:06:24.821Z,89.27
2023-03-27T23:08:52.894Z,90.23
2023-03-27T23:11:20.618Z,91.16
2023-03-27T23:14:01.512Z,91.44
2023-03-27T23:16:29.010Z,91.84
2023-03-27T23:18:56.447Z,92.30
2023-03-27T23:21:23.877Z,92.79
2023-03-27T23:23:51.542Z,93.37
2023-03-27T23:26:18.888Z,93.65
2023-03-27T23:28:52.023Z,93.92
2023-03-27T23:31:20.411Z,94.23
2023-03-27T23:33:50.917Z,94.40
2023-03-27T23:36:22.105Z,94.33
2023-03-27T23:38:49.963Z,94.68
2023-03-27T23:41:18.584Z,95.11
2023-03-27T23:43:46.306Z,95.72
2023-03-27T23:46:15.886Z,96.04
2023-03-27T23:48:44.716Z,96.79
2023-03-27T23:51:14.249Z,97.55
2023-03-27T23:53:43.347Z,98.07
2023-03-27T23:56:11.611Z,99.08
2023-03-27T23:58:39.047Z,99.84
